Time;durP1;ratioP1;P1;durP2;ratioP2;P2;SDS_P1;SDS_P2;PMS_P1;PMS_P2;Temp;Humidity;BMP_temperature;BMP_pressure;BME280_temperature;BME280_humidity;BME280_pressure;Samples;Min_cycle;Max_cycle;Signal;HPM_P1;HPM_P2
2023/09/06 00:01:19;;;;;;;3.95;2.25;;;;;;;19.53;73.22;101733.53;4984373;28;20066;-78
2023/09/06 00:03:46;;;;;;;3.13;2.10;;;;;;;19.54;74.09;101737.06;4983298;28;20046;-78
2023/09/06 00:06:13;;;;;;;4.03;2.30;;;;;;;19.50;74.34;101736.38;4984074;28;20046;-77
2023/09/06 00:08:40;;;;;;;3.45;2.03;;;;;;;19.48;74.21;101735.59;4982643;28;20126;-78
2023/09/06 00:11:08;;;;;;;2.75;2.10;;;;;;;19.50;74.68;101727.50;4981788;28;20301;-78
2023/09/06 00:13:35;;;;;;;2.72;2.00;;;;;;;19.50;74.75;101730.16;5001038;28;20046;-78
2023/09/06 00:16:04;;;;;;;2.25;1.95;;;;;;;19.55;75.22;101726.28;4985627;28;20088;-78
2023/09/06 00:18:31;;;;;;;2.63;1.85;;;;;;;19.60;75.25;101717.16;4966339;28;20038;-78
2023/09/06 00:20:59;;;;;;;3.80;2.20;;;;;;;19.64;75.15;101724.06;4996650;28;20042;-78
2023/09/06 00:23:26;;;;;;;5.38;2.10;;;;;;;19.64;75.08;101718.72;4979078;28;20525;-78
2023/09/06 00:25:53;;;;;;;1.85;1.67;;;;;;;19.65;74.78;101723.13;4983836;28;20149;-80
2023/09/06 00:28:23;;;;;;;4.53;2.28;;;;;;;19.62;74.67;101724.16;4999448;28;20113;-78
2023/09/06 00:30:56;;;;;;;5.38;2.22;;;;;;;19.61;74.84;101732.25;4981465;28;20047;-78
2023/09/06 00:33:33;;;;;;;4.20;2.05;;;;;;;19.59;75.03;101728.78;4987177;28;20046;-78
2023/09/06 00:36:04;;;;;;;4.25;2.08;;;;;;;19.54;74.54;101729.03;4984559;28;20042;-78
2023/09/06 00:38:32;;;;;;;2.78;2.08;;;;;;;19.49;74.65;101731.97;4997742;28;20057;-79
2023/09/06 00:40:59;;;;;;;3.85;1.77;;;;;;;19.42;74.39;101727.91;4986572;28;20458;-79
2023/09/06 00:43:26;;;;;;;2.92;2.10;;;;;;;19.34;74.16;101730.97;4969217;28;20744;-80
2023/09/06 00:45:54;;;;;;;3.25;2.08;;;;;;;19.27;74.36;101728.72;5000582;28;20124;-80
2023/09/06 00:48:25;;;;;;;3.55;1.80;;;;;;;19.18;74.90;101728.25;4982916;28;20042;-79
2023/09/06 00:50:56;;;;;;;4.55;1.90;;;;;;;19.08;75.04;101722.53;4985146;28;20073;-78
2023/09/06 00:53:26;;;;;;;3.53;1.85;;;;;;;18.99;75.08;101719.47;4984207;28;20042;-82
2023/09/06 00:55:55;;;;;;;4.32;2.00;;;;;;;18.91;75.33;101719.84;4985424;28;20049;-84
2023/09/06 00:58:22;;;;;;;3.45;2.15;;;;;;;18.85;75.81;101721.03;4979840;28;20042;-76
2023/09/06 01:00:50;;;;;;;3.88;2.42;;;;;;;18.80;76.10;101719.53;4983515;28;20631;-78
2023/09/06 01:03:18;;;;;;;4.35;2.20;;;;;;;18.76;76.00;101730.38;4983855;28;20069;-78
2023/09/06 01:06:12;;;;;;;4.80;2.17;;;;;;;18.73;76.18;101727.00;4982962;28;20121;-79
2023/09/06 01:08:49;;;;;;;8.32;2.60;;;;;;;18.69;76.32;101728.97;4982461;28;20521;-78
2023/09/06 01:11:22;;;;;;;4.72;2.33;;;;;;;18.71;76.35;101732.44;4979652;28;20066;-79
2023/09/06 01:13:55;;;;;;;2.75;2.15;;;;;;;18.71;76.31;101727.09;4982994;28;20050;-79
2023/09/06 01:16:29;;;;;;;4.13;2.10;;;;;;;18.72;76.42;101731.47;4983554;28;20049;-79
2023/09/06 01:18:59;;;;;;;3.05;2.17;;;;;;;18.76;76.76;101730.38;4965275;28;20581;-78
2023/09/06 01:21:35;;;;;;;3.80;1.98;;;;;;;18.78;76.93;101719.59;4980096;28;20048;-78
2023/09/06 01:24:05;;;;;;;3.97;2.22;;;;;;;18.79;77.16;101724.00;4981652;28;20471;-78
2023/09/06 01:26:34;;;;;;;4.07;2.20;;;;;;;18.74;77.08;101734.06;4981902;28;20078;-78
2023/09/06 01:29:02;;;;;;;5.03;2.40;;;;;;;18.69;77.08;101726.28;4979582;28;20058;-78
2023/09/06 01:31:30;;;;;;;5.90;2.28;;;;;;;18.62;77.46;101723.06;4982528;28;20066;-79
2023/09/06 01:33:57;;;;;;;4.32;2.00;;;;;;;18.55;77.55;101727.00;4975691;28;20043;-78
2023/09/06 01:36:25;;;;;;;4.72;2.33;;;;;;;18.52;77.32;101727.13;4983241;28;20038;-78
2023/09/06 01:38:52;;;;;;;3.83;2.35;;;;;;;18.47;77.64;101726.47;4979838;28;20117;-78
2023/09/06 01:41:19;;;;;;;3.45;2.20;;;;;;;18.43;77.49;101730.25;4983438;28;20046;-78
2023/09/06 01:43:46;;;;;;;4.18;2.15;;;;;;;18.42;77.52;101718.69;4980029;28;20233;-78
2023/09/06 01:46:13;;;;;;;2.90;2.40;;;;;;;18.41;77.57;101719.69;4984541;28;20046;-78
2023/09/06 01:48:41;;;;;;;6.35;2.30;;;;;;;18.39;77.83;101728.66;4984419;28;20038;-80
2023/09/06 01:51:08;;;;;;;4.70;2.40;;;;;;;18.34;78.24;101723.56;4984203;28;20050;-81
2023/09/06 01:53:35;;;;;;;7.72;2.45;;;;;;;18.27;78.25;101724.81;4979947;28;20098;-81
2023/09/06 01:56:07;;;;;;;6.43;2.40;;;;;;;18.20;78.27;101726.06;4998676;28;20479;-81
2023/09/06 01:58:35;;;;;;;4.63;2.55;;;;;;;18.13;79.01;101730.81;4994936;28;20034;-81
2023/09/06 02:01:03;;;;;;;3.45;2.40;;;;;;;18.06;78.82;101730.25;4981901;28;20030;-81
2023/09/06 02:03:34;;;;;;;5.50;2.60;;;;;;;18.00;79.43;101742.06;4983578;28;20050;-84
2023/09/06 02:06:02;;;;;;;5.93;2.90;;;;;;;17.95;79.59;101732.53;4983997;28;20073;-82
2023/09/06 02:08:32;;;;;;;4.00;2.60;;;;;;;17.88;80.06;101739.94;4985520;28;20140;-80
2023/09/06 02:10:59;;;;;;;5.68;2.50;;;;;;;17.81;80.67;101755.38;5003532;28;20038;-80
2023/09/06 02:13:26;;;;;;;3.92;2.20;;;;;;;17.79;81.40;101756.38;4985154;28;20121;-79
2023/09/06 02:15:53;;;;;;;4.50;2.30;;;;;;;17.80;81.71;101748.34;4985986;28;20101;-81
2023/09/06 02:18:20;;;;;;;2.97;2.38;;;;;;;17.78;81.71;101754.66;4992301;28;20050;-80
2023/09/06 02:20:50;;;;;;;6.95;2.67;;;;;;;17.69;81.85;101751.47;4987362;28;20050;-78
2023/09/06 02:23:17;;;;;;;5.03;2.10;;;;;;;17.59;82.32;101752.81;4983931;28;20053;-79
2023/09/06 02:25:45;;;;;;;5.97;2.67;;;;;;;17.47;82.39;101748.03;4997158;28;20050;-78
2023/09/06 02:28:14;;;;;;;5.75;2.50;;;;;;;17.39;82.96;101756.41;4984947;28;20043;-79
2023/09/06 02:30:41;;;;;;;5.13;2.47;;;;;;;17.31;82.67;101759.41;4986882;28;20053;-79
2023/09/06 02:33:13;;;;;;;4.70;2.92;;;;;;;17.27;82.90;101752.47;4980911;28;20618;-79
2023/09/06 02:35:41;;;;;;;6.50;3.22;;;;;;;17.24;83.45;101747.28;4984678;28;20554;-80
2023/09/06 02:38:12;;;;;;;3.85;2.75;;;;;;;17.21;83.32;101753.59;4985239;28;20278;-79
2023/09/06 02:40:42;;;;;;;4.05;2.88;;;;;;;17.17;83.16;101753.81;4985140;28;20046;-79
2023/09/06 02:43:13;;;;;;;4.18;3.08;;;;;;;17.13;83.37;101757.56;4979670;28;20153;-79
2023/09/06 02:45:49;;;;;;;5.32;3.30;;;;;;;17.11;83.41;101764.75;4985991;28;20048;-79
2023/09/06 02:48:18;;;;;;;4.30;3.08;;;;;;;17.11;83.15;101762.94;4987213;28;20480;-79
2023/09/06 02:50:45;;;;;;;5.13;2.78;;;;;;;17.11;83.48;101772.72;5001338;28;20699;-78
2023/09/06 02:53:20;;;;;;;4.97;2.90;;;;;;;17.09;83.75;101767.47;4984115;28;20541;-78
2023/09/06 02:55:51;;;;;;;6.43;3.30;;;;;;;17.07;83.58;101764.84;4984636;28;20039;-78
2023/09/06 02:58:23;;;;;;;5.80;3.00;;;;;;;17.07;83.82;101764.84;4983925;28;20057;-78
2023/09/06 03:00:57;;;;;;;4.50;3.05;;;;;;;17.04;84.30;101764.13;4966870;28;20047;-78
2023/09/06 03:03:30;;;;;;;4.83;2.93;;;;;;;17.01;84.87;101761.59;4977256;28;20042;-78
2023/09/06 03:05:59;;;;;;;5.63;3.20;;;;;;;17.00;85.18;101762.53;4987228;28;20135;-78
2023/09/06 03:08:28;;;;;;;6.35;3.05;;;;;;;16.96;85.71;101760.94;5001422;28;20046;-78
2023/09/06 03:10:57;;;;;;;6.93;3.30;;;;;;;17.00;86.13;101770.50;5001808;28;20060;-78
2023/09/06 03:13:25;;;;;;;6.00;2.75;;;;;;;17.04;86.42;101777.44;4967962;28;20046;-79
2023/09/06 03:15:52;;;;;;;5.10;2.88;;;;;;;17.01;86.16;101772.25;4998727;28;20104;-78
2023/09/06 03:18:20;;;;;;;6.78;2.63;;;;;;;16.93;86.23;101775.22;5000547;28;20038;-78
2023/09/06 03:20:47;;;;;;;6.10;2.83;;;;;;;16.83;86.70;101779.19;4980443;28;20082;-79
2023/09/06 03:23:19;;;;;;;5.80;2.88;;;;;;;16.75;87.04;101774.19;4962163;28;20122;-79
2023/09/06 03:25:54;;;;;;;6.00;2.80;;;;;;;16.64;87.71;101781.75;4981293;28;20587;-80
2023/09/06 03:28:25;;;;;;;4.50;2.63;;;;;;;16.58;88.29;101770.41;4978384;28;20053;-80
2023/09/06 03:30:58;;;;;;;4.43;2.90;;;;;;;16.56;88.25;101782.06;4983955;28;20117;-81
2023/09/06 03:33:27;;;;;;;4.35;2.83;;;;;;;16.52;87.89;101783.13;4985728;28;20053;-81
2023/09/06 03:35:56;;;;;;;6.18;2.83;;;;;;;16.45;87.89;101782.50;4998216;28;20054;-82
2023/09/06 03:38:25;;;;;;;4.85;3.00;;;;;;;16.40;87.91;101779.13;4984798;28;20647;-82
2023/09/06 03:40:54;;;;;;;6.20;3.15;;;;;;;16.40;88.27;101781.81;4985571;28;20062;-81
2023/09/06 03:43:29;;;;;;;3.90;3.38;;;;;;;16.41;88.45;101781.75;4983481;28;20042;-81
2023/09/06 03:45:58;;;;;;;4.43;2.97;;;;;;;16.44;88.59;101786.09;4984996;28;20136;-82
2023/09/06 03:48:27;;;;;;;6.30;3.90;;;;;;;16.42;88.33;101772.84;4985700;28;20722;-84
2023/09/06 03:50:59;;;;;;;4.30;3.30;;;;;;;16.43;88.30;101779.03;4996665;28;20050;-83
2023/09/06 03:53:27;;;;;;;5.15;3.67;;;;;;;16.42;88.18;101778.19;4983528;28;20058;-84
2023/09/06 03:55:57;;;;;;;6.90;3.63;;;;;;;16.43;88.37;101779.88;4996469;28;20042;-82
2023/09/06 03:58:34;;;;;;;4.88;3.70;;;;;;;16.43;88.42;101771.91;4974428;28;20046;-82
2023/09/06 04:01:03;;;;;;;6.70;3.53;;;;;;;16.40;88.38;101774.69;4983897;28;20129;-82
2023/09/06 04:03:34;;;;;;;8.00;3.38;;;;;;;16.40;87.99;101774.69;4983304;28;20045;-82
2023/09/06 04:06:03;;;;;;;6.60;3.90;;;;;;;16.39;88.16;101778.28;4980711;28;20077;-79
2023/09/06 04:08:31;;;;;;;5.28;3.78;;;;;;;16.40;88.14;101789.78;4998665;28;20064;-80
2023/09/06 04:11:00;;;;;;;5.55;3.45;;;;;;;16.39;88.05;101788.06;4994461;28;20046;-80
2023/09/06 04:13:28;;;;;;;8.32;3.53;;;;;;;16.38;88.14;101791.66;4983016;28;20046;-78
2023/09/06 04:15:57;;;;;;;7.80;3.63;;;;;;;16.37;88.40;101785.47;4978954;28;20049;-77
2023/09/06 04:18:28;;;;;;;5.43;3.78;;;;;;;16.37;88.30;101785.47;4998802;28;20057;-78
2023/09/06 04:20:59;;;;;;;8.10;3.92;;;;;;;16.37;89.01;101795.25;4982804;28;20065;-79
2023/09/06 04:23:27;;;;;;;7.05;4.15;;;;;;;16.37;88.90;101793.44;4980515;28;20168;-78
2023/09/06 04:25:56;;;;;;;5.70;3.80;;;;;;;16.37;89.00;101793.44;4980971;28;20046;-77
2023/09/06 04:28:27;;;;;;;5.68;4.32;;;;;;;16.39;89.27;101796.03;4999000;28;20567;-77
2023/09/06 04:30:58;;;;;;;5.18;4.38;;;;;;;16.38;89.57;101799.66;4980066;28;20117;-77
2023/09/06 04:33:30;;;;;;;10.07;4.47;;;;;;;16.40;90.01;101803.09;5011093;28;20054;-81
2023/09/06 04:36:04;;;;;;;6.88;3.92;;;;;;;16.42;89.88;101802.13;5019895;28;20053;-80
2023/09/06 04:38:32;;;;;;;8.02;4.05;;;;;;;16.40;89.22;101797.78;5004062;28;20123;-77
2023/09/06 04:41:02;;;;;;;7.20;4.05;;;;;;;16.34;89.64;101803.34;4999212;28;20524;-75
2023/09/06 04:43:36;;;;;;;6.43;3.33;;;;;;;16.24;90.01;101800.16;5016370;28;20038;-75
2023/09/06 04:46:04;;;;;;;6.75;3.75;;;;;;;16.15;89.79;101804.91;4984209;28;20097;-76
2023/09/06 04:48:36;;;;;;;6.53;3.65;;;;;;;16.07;90.07;101809.66;5016943;28;20037;-72
2023/09/06 04:51:05;;;;;;;10.02;3.50;;;;;;;16.02;90.20;101808.09;5016722;28;20042;-72
2023/09/06 04:53:33;;;;;;;6.28;3.38;;;;;;;15.98;90.46;101807.38;4998357;28;20042;-72
2023/09/06 04:56:04;;;;;;;5.28;3.15;;;;;;;15.94;90.51;101813.72;4999367;28;20052;-72
2023/09/06 04:58:51;;;;;;;6.20;3.33;;;;;;;15.88;90.48;101805.97;4999857;28;20049;-72
2023/09/06 05:01:18;;;;;;;7.07;3.83;;;;;;;15.87;90.18;101806.91;5000458;28;20558;-72
2023/09/06 05:03:47;;;;;;;9.60;4.90;;;;;;;15.89;91.35;101805.91;5000667;28;20558;-72
2023/09/06 05:06:15;;;;;;;6.65;4.28;;;;;;;15.92;91.08;101812.94;5019053;28;20033;-72
2023/09/06 05:08:43;;;;;;;4.90;4.35;;;;;;;15.96;91.54;101819.84;5003004;28;20050;-72
2023/09/06 05:11:15;;;;;;;10.25;4.43;;;;;;;15.99;91.23;101812.63;5002869;28;20029;-72
2023/09/06 05:13:45;;;;;;;8.30;4.28;;;;;;;16.06;91.43;101823.03;4996986;28;20426;-72
2023/09/06 05:16:12;;;;;;;5.93;4.40;;;;;;;16.19;91.51;101826.09;5001410;28;20047;-72
2023/09/06 05:18:40;;;;;;;5.32;3.50;;;;;;;17.18;88.80;101822.16;5003571;28;20042;-72
2023/09/06 05:21:07;;;;;;;5.88;4.18;;;;;;;18.21;84.87;101821.19;5000725;28;20037;-73
2023/09/06 05:23:37;;;;;;;6.53;4.03;;;;;;;17.95;84.32;101823.22;4995067;28;20042;-73
2023/09/06 05:26:04;;;;;;;5.65;4.50;;;;;;;17.59;85.75;101832.81;5010088;28;20053;-73
2023/09/06 05:28:37;;;;;;;4.93;4.40;;;;;;;17.33;86.31;101832.16;5001337;28;20133;-73
2023/09/06 05:31:06;;;;;;;6.35;4.47;;;;;;;17.16;86.62;101838.22;4996825;28;20538;-73
2023/09/06 05:33:38;;;;;;;6.13;4.10;;;;;;;17.08;87.25;101837.66;4991337;28;20123;-75
2023/09/06 05:36:08;;;;;;;6.35;4.13;;;;;;;17.05;87.46;101843.97;5012338;28;20395;-73
2023/09/06 05:38:37;;;;;;;5.97;3.88;;;;;;;17.03;87.58;101840.53;5007523;28;20030;-73
2023/09/06 05:41:05;;;;;;;7.47;4.10;;;;;;;17.05;87.55;101843.13;5015290;28;20498;-73
2023/09/06 05:43:39;;;;;;;;;;;;;;;17.05;87.40;101843.13;5001562;28;20168;-73
2023/09/06 05:46:07;;;;;;;8.02;4.40;;;;;;;17.10;87.20;101845.59;5017172;28;19937;-73
2023/09/06 05:48:55;;;;;;;5.95;4.13;;;;;;;17.14;87.69;101849.88;5015952;28;20049;-73
2023/09/06 05:51:24;;;;;;;5.88;3.88;;;;;;;17.21;87.73;101854.00;5009900;28;20053;-73
2023/09/06 05:53:52;;;;;;;5.35;3.75;;;;;;;17.26;87.26;101854.66;4995840;28;20046;-73
2023/09/06 05:56:20;;;;;;;5.00;4.22;;;;;;;17.32;87.79;101857.06;4997906;28;20146;-73
2023/09/06 05:58:47;;;;;;;6.97;4.30;;;;;;;17.38;87.80;101850.63;5000360;28;20037;-73
2023/09/06 06:01:17;;;;;;;5.97;3.90;;;;;;;17.43;87.46;101845.94;5000470;28;20399;-74
2023/09/06 06:03:45;;;;;;;10.98;4.30;;;;;;;17.51;87.36;101854.47;5028892;28;20584;-73
2023/09/06 06:06:16;;;;;;;5.80;3.83;;;;;;;17.58;87.04;101859.53;4996502;28;20133;-73
2023/09/06 06:08:43;;;;;;;5.35;4.00;;;;;;;17.63;87.46;101853.09;5005035;28;20069;-73
2023/09/06 06:11:11;;;;;;;4.97;3.75;;;;;;;17.70;86.93;101854.53;5007001;28;20052;-73
2023/09/06 06:13:38;;;;;;;5.20;3.75;;;;;;;17.76;87.10;101856.06;5001912;28;20049;-73
2023/09/06 06:16:06;;;;;;;6.63;3.85;;;;;;;17.85;87.13;101860.13;5003018;28;20073;-73
2023/09/06 06:18:34;;;;;;;12.60;4.50;;;;;;;17.94;nan;101864.16;5003361;28;20556;-73
2023/09/06 06:21:02;;;;;;;8.70;3.95;;;;;;;18.03;86.46;101854.91;5018670;28;20045;-73
2023/09/06 06:23:29;;;;;;;6.60;3.72;;;;;;;18.11;86.72;101856.28;5000855;28;20092;-73
2023/09/06 06:25:57;;;;;;;4.25;3.38;;;;;;;18.20;86.35;101855.00;5011233;28;20056;-73
2023/09/06 06:28:24;;;;;;;5.68;3.70;;;;;;;18.31;85.49;101860.72;5000442;28;20049;-73
2023/09/06 06:30:51;;;;;;;6.68;3.95;;;;;;;18.41;85.81;101863.81;5002221;28;20113;-73
2023/09/06 06:33:19;;;;;;;6.13;3.33;;;;;;;18.52;85.17;101870.47;5004785;28;20544;-73
2023/09/06 06:35:46;;;;;;;6.97;3.67;;;;;;;18.63;84.96;101863.66;5005378;28;20064;-73
2023/09/06 06:38:13;;;;;;;8.63;4.28;;;;;;;18.75;84.91;101861.34;5002521;28;20108;-73
2023/09/06 06:40:40;;;;;;;6.00;3.75;;;;;;;18.87;84.54;101863.38;5007192;28;20407;-73
2023/09/06 06:43:07;;;;;;;5.88;3.35;;;;;;;19.01;84.34;101869.88;5007782;28;20050;-73
2023/09/06 06:45:35;;;;;;;6.10;3.63;;;;;;;19.13;84.07;101865.75;5007458;28;20501;-73
2023/09/06 06:48:02;;;;;;;4.88;3.38;;;;;;;19.26;83.42;101874.00;5005395;28;20037;-73
2023/09/06 06:50:29;;;;;;;7.22;3.80;;;;;;;19.35;83.21;101871.72;5007817;28;20042;-73
2023/09/06 06:52:56;;;;;;;5.43;3.30;;;;;;;19.48;82.64;101876.44;5007004;28;20415;-73
2023/09/06 06:55:23;;;;;;;5.68;3.10;;;;;;;19.59;82.36;101868.72;5007260;28;20173;-73
2023/09/06 06:57:53;;;;;;;5.57;3.28;;;;;;;19.73;82.35;101875.19;5007751;28;20092;-73
2023/09/06 07:00:21;;;;;;;9.10;3.42;;;;;;;19.86;81.68;101879.81;5003712;28;20060;-73
2023/09/06 07:02:48;;;;;;;7.57;3.05;;;;;;;19.98;81.47;101880.13;5004238;28;20046;-73
2023/09/06 07:05:16;;;;;;;5.28;3.28;;;;;;;20.07;81.10;101884.97;5003544;28;20042;-74
2023/09/06 07:07:43;;;;;;;8.45;3.53;;;;;;;20.17;80.73;101883.53;5007683;28;20120;-73
2023/09/06 07:10:11;;;;;;;5.18;3.35;;;;;;;20.27;80.48;101878.50;5007725;28;20104;-73
2023/09/06 07:12:38;;;;;;;5.07;3.20;;;;;;;20.38;80.25;101877.06;5023267;28;20656;-73
2023/09/06 07:15:06;;;;;;;7.97;3.10;;;;;;;20.48;79.43;101881.84;5009115;28;20111;-73
2023/09/06 07:17:33;;;;;;;5.53;2.53;;;;;;;20.59;79.00;101875.00;5007449;28;20057;-73
2023/09/06 07:20:01;;;;;;;5.05;2.90;;;;;;;20.70;78.97;101882.41;5010572;28;20038;-73
2023/09/06 07:22:28;;;;;;;3.33;2.95;;;;;;;20.81;78.88;101877.34;5005224;28;20042;-73
2023/09/06 07:24:55;;;;;;;7.13;3.17;;;;;;;20.94;78.34;101878.38;5006043;28;20117;-73
2023/09/06 07:27:22;;;;;;;4.40;3.10;;;;;;;21.06;78.13;101876.78;5005514;28;20133;-73
2023/09/06 07:29:49;;;;;;;7.80;2.95;;;;;;;21.19;76.84;101876.94;5008514;28;20045;-73
2023/09/06 07:32:17;;;;;;;3.83;2.78;;;;;;;21.28;76.89;101878.22;5006565;28;20591;-73
2023/09/06 07:34:44;;;;;;;5.50;2.70;;;;;;;21.39;75.97;101883.81;5003805;28;20493;-73
2023/09/06 07:37:11;;;;;;;6.18;3.15;;;;;;;21.51;75.47;101884.03;5019187;28;20049;-73
2023/09/06 07:39:39;;;;;;;5.18;2.80;;;;;;;21.60;75.31;101886.19;4999464;28;20453;-72
2023/09/06 07:42:06;;;;;;;8.30;3.25;;;;;;;21.70;75.42;101886.47;5004956;28;20073;-72
2023/09/06 07:44:33;;;;;;;5.70;2.92;;;;;;;21.80;74.86;101884.09;5006918;28;20046;-72
2023/09/06 07:47:00;;;;;;;5.32;2.80;;;;;;;21.90;74.33;101885.25;5001401;28;20092;-72
2023/09/06 07:49:30;;;;;;;5.10;2.92;;;;;;;22.00;74.43;101888.22;5005585;28;20095;-71
2023/09/06 07:51:59;;;;;;;5.47;2.85;;;;;;;22.09;74.40;101886.78;5003384;28;20037;-72
2023/09/06 07:54:26;;;;;;;6.25;3.25;;;;;;;22.22;73.42;101897.63;5003769;28;20120;-72
2023/09/06 07:56:53;;;;;;;6.10;3.13;;;;;;;22.29;72.96;101891.75;5007002;28;20123;-72
2023/09/06 07:59:24;;;;;;;5.10;3.08;;;;;;;22.39;73.58;101891.16;5006999;28;20052;-71
2023/09/06 08:01:51;;;;;;;10.18;3.45;;;;;;;22.51;73.26;101895.78;5006205;28;20069;-72
2023/09/06 08:04:19;;;;;;;6.57;3.47;;;;;;;22.61;71.65;101902.31;5006040;28;20165;-72
2023/09/06 08:06:46;;;;;;;7.45;3.25;;;;;;;22.67;71.85;101892.97;5000348;28;20046;-72
2023/09/06 08:09:14;;;;;;;4.57;3.20;;;;;;;22.77;71.96;101901.28;5007475;28;20061;-72
2023/09/06 08:11:41;;;;;;;5.75;3.40;;;;;;;22.87;70.91;101897.03;5005602;28;20045;-72
2023/09/06 08:14:08;;;;;;;4.30;2.72;;;;;;;22.95;70.65;101900.06;5006649;28;20050;-73
2023/09/06 08:16:35;;;;;;;4.82;3.03;;;;;;;23.04;69.53;101900.44;5021764;28;20100;-72
2023/09/06 08:19:03;;;;;;;6.68;3.08;;;;;;;23.13;70.49;101896.25;5009176;28;20165;-72
2023/09/06 08:21:30;;;;;;;7.07;2.70;;;;;;;23.23;70.59;101900.97;5021346;28;20100;-73
2023/09/06 08:23:57;;;;;;;6.90;3.05;;;;;;;23.33;69.39;101894.97;5021143;28;20067;-73
2023/09/06 08:26:25;;;;;;;6.70;3.15;;;;;;;23.41;69.37;101897.97;5005637;28;20057;-72
2023/09/06 08:28:52;;;;;;;5.38;3.72;;;;;;;23.51;68.42;101899.06;5006494;28;20585;-72
2023/09/06 08:31:19;;;;;;;4.88;3.00;;;;;;;23.61;68.53;101898.44;5002015;28;20375;-72
2023/09/06 08:33:46;;;;;;;7.00;3.60;;;;;;;23.73;68.06;101900.28;5001560;28;20046;-72
2023/09/06 08:36:13;;;;;;;6.13;3.30;;;;;;;23.84;65.14;101899.53;5005320;28;20042;-72
2023/09/06 08:38:41;;;;;;;4.47;3.28;;;;;;;23.88;65.91;101899.19;5003079;28;20069;-72
2023/09/06 08:41:08;;;;;;;5.07;3.38;;;;;;;23.98;65.94;101891.38;5005619;28;20042;-73
2023/09/06 08:43:42;;;;;;;3.85;3.25;;;;;;;24.09;65.84;101887.06;5005690;28;20049;-72
2023/09/06 08:46:29;;;;;;;4.68;2.65;;;;;;;24.21;65.79;101896.97;5004988;28;20104;-72
2023/09/06 08:49:02;;;;;;;4.30;2.60;;;;;;;24.33;65.48;101895.19;5002844;28;20097;-72
2023/09/06 08:51:35;;;;;;;5.93;2.97;;;;;;;24.46;64.38;101895.16;5003177;28;20113;-72
2023/09/06 08:54:06;;;;;;;5.07;2.90;;;;;;;24.55;63.68;101890.94;4991365;28;20607;-72
2023/09/06 08:56:34;;;;;;;4.45;2.65;;;;;;;24.62;61.54;101892.19;5003793;28;20050;-72
2023/09/06 08:59:02;;;;;;;6.53;2.58;;;;;;;24.68;61.86;101891.78;5005322;28;20045;-72
2023/09/06 09:01:30;;;;;;;6.22;2.55;;;;;;;24.76;61.60;101894.78;5000346;28;20038;-73
2023/09/06 09:03:58;;;;;;;6.25;2.40;;;;;;;24.86;62.04;101894.94;5001864;28;20405;-72
2023/09/06 09:06:25;;;;;;;4.30;2.60;;;;;;;24.99;59.54;101894.03;5002959;28;20078;-72
2023/09/06 09:08:53;;;;;;;7.13;2.60;;;;;;;25.03;60.14;101884.75;5005607;28;20042;-73
2023/09/06 09:11:20;;;;;;;6.00;2.97;;;;;;;25.14;59.61;101892.84;5004152;28;20089;-73
2023/09/06 09:13:47;;;;;;;4.57;2.28;;;;;;;25.24;59.83;101893.03;5004364;28;20077;-73
2023/09/06 09:16:16;;;;;;;3.88;2.60;;;;;;;25.32;59.90;101892.44;5021485;28;20129;-73
2023/09/06 09:18:44;;;;;;;5.20;2.63;;;;;;;25.43;58.93;101885.25;5007698;28;20045;-73
2023/09/06 09:21:13;;;;;;;7.60;2.88;;;;;;;25.55;58.89;101893.38;5021310;28;20461;-73
2023/09/06 09:23:46;;;;;;;4.85;2.47;;;;;;;25.66;57.47;101888.03;5005324;28;20049;-73
2023/09/06 09:26:19;;;;;;;7.25;2.65;;;;;;;25.77;58.41;101889.84;5001717;28;20060;-73
2023/09/06 09:28:48;;;;;;;4.70;2.85;;;;;;;25.85;56.63;101891.97;5020376;28;20058;-72
2023/09/06 09:31:16;;;;;;;7.15;2.72;;;;;;;25.89;56.84;101897.00;5004159;28;20041;-73
2023/09/06 09:33:44;;;;;;;5.38;2.60;;;;;;;26.00;57.18;101884.47;5001833;28;20041;-72
2023/09/06 09:36:17;;;;;;;5.07;2.63;;;;;;;26.12;54.64;101882.66;5033221;28;20065;-72
2023/09/06 09:38:51;;;;;;;5.30;2.60;;;;;;;26.20;54.76;101889.19;5020636;28;20034;-73
2023/09/06 09:41:19;;;;;;;6.22;2.88;;;;;;;26.28;54.97;101891.25;5006326;28;20084;-73
2023/09/06 09:43:47;;;;;;;4.72;3.30;;;;;;;26.34;52.91;101890.75;5008855;28;20046;-73
2023/09/06 09:46:27;;;;;;;5.10;2.60;;;;;;;26.40;52.63;101886.69;5002182;28;20045;-73
2023/09/06 09:49:00;;;;;;;6.68;3.28;;;;;;;26.46;52.43;101891.59;4999635;28;20042;-73
2023/09/06 09:51:30;;;;;;;5.38;2.95;;;;;;;26.53;53.29;101891.94;5005258;28;20045;-73
2023/09/06 09:53:57;;;;;;;4.95;2.35;;;;;;;26.61;52.45;101888.63;5006099;28;20391;-72
2023/09/06 09:56:25;;;;;;;5.13;2.40;;;;;;;26.70;51.54;101890.56;5001689;28;20038;-73
2023/09/06 09:58:54;;;;;;;4.07;2.60;;;;;;;26.79;50.45;101887.13;4998437;28;20050;-73
2023/09/06 10:01:22;;;;;;;4.68;2.63;;;;;;;26.84;49.27;101886.75;5005458;28;20096;-73
2023/09/06 10:03:55;;;;;;;5.93;2.30;;;;;;;26.91;49.84;101884.38;5001882;28;20121;-73
2023/09/06 10:06:27;;;;;;;3.75;2.67;;;;;;;27.00;49.25;101877.34;5004972;28;20057;-72
2023/09/06 10:08:57;;;;;;;6.70;2.70;;;;;;;27.07;49.83;101881.25;5020671;28;20041;-73
2023/09/06 10:11:26;;;;;;;4.50;2.58;;;;;;;27.14;50.58;101877.03;5008530;28;20096;-73
2023/09/06 10:13:53;;;;;;;4.82;3.05;;;;;;;27.24;48.91;101875.25;5006760;28;20042;-73
2023/09/06 10:16:23;;;;;;;13.32;2.90;;;;;;;27.32;48.90;101881.88;5021099;28;20037;-73
2023/09/06 10:18:50;;;;;;;4.28;2.97;;;;;;;27.41;49.05;101867.53;5007196;28;20038;-73
2023/09/06 10:21:18;;;;;;;4.55;2.63;;;;;;;27.52;48.75;101861.22;5023325;28;20530;-73
2023/09/06 10:23:47;;;;;;;7.03;2.92;;;;;;;27.56;47.98;101858.09;5024381;28;20065;-73
2023/09/06 10:26:26;;;;;;;5.57;2.70;;;;;;;27.65;47.77;101861.88;5017361;28;20061;-72
2023/09/06 10:28:57;;;;;;;6.00;2.50;;;;;;;27.71;48.39;101863.19;5008847;28;20497;-72
2023/09/06 10:31:48;;;;;;;5.18;2.70;;;;;;;27.83;47.33;101869.38;5006695;28;20038;-72
2023/09/06 10:34:16;;;;;;;4.72;2.72;;;;;;;27.83;47.34;101872.91;5005283;28;20081;-72
2023/09/06 10:36:59;;;;;;;5.88;2.60;;;;;;;27.87;47.71;101871.66;5005976;28;20494;-72
2023/09/06 10:39:29;;;;;;;6.03;2.35;;;;;;;27.92;49.22;101856.88;5006099;28;20041;-72
2023/09/06 10:42:11;;;;;;;4.60;2.50;;;;;;;28.03;48.64;101864.91;5021885;28;20049;-71
2023/09/06 10:44:53;;;;;;;4.13;2.45;;;;;;;28.13;48.04;101862.25;5037735;28;20038;-72
2023/09/06 10:47:35;;;;;;;4.15;2.70;;;;;;;28.16;46.83;101865.53;5022380;28;20405;-71
2023/09/06 10:50:19;;;;;;;5.70;3.08;;;;;;;28.17;46.49;101859.13;4988732;28;20053;-72
2023/09/06 10:52:53;;;;;;;3.85;2.60;;;;;;;28.18;47.41;101865.41;5004947;28;20076;-71
2023/09/06 10:55:27;;;;;;;4.50;2.90;;;;;;;28.25;47.58;101860.28;5007262;28;20046;-72
2023/09/06 10:58:02;;;;;;;4.88;2.58;;;;;;;28.33;48.25;101861.31;5006575;28;20045;-72
2023/09/06 11:00:31;;;;;;;4.15;2.70;;;;;;;28.41;47.97;101849.78;5006084;28;20068;-72
2023/09/06 11:03:04;;;;;;;5.45;2.53;;;;;;;28.47;47.94;101845.66;5008980;28;20156;-72
2023/09/06 11:05:37;;;;;;;;;;;;;;;28.57;48.18;101845.66;5006442;28;20042;-72
2023/09/06 11:08:08;;;;;;;3.90;2.30;;;;;;;28.66;47.61;101850.22;5005176;28;19949;-72
2023/09/06 11:10:36;;;;;;;6.15;2.80;;;;;;;28.75;46.34;101846.69;5022087;28;20096;-72
2023/09/06 11:13:12;;;;;;;6.78;3.20;;;;;;;28.82;46.37;101850.56;5006825;28;20054;-71
2023/09/06 11:15:39;;;;;;;4.72;2.78;;;;;;;28.87;45.29;101838.41;5007757;28;20057;-70
2023/09/06 11:18:09;;;;;;;3.60;2.42;;;;;;;28.88;45.06;101835.56;5008344;28;20108;-71
2023/09/06 11:20:37;;;;;;;5.72;2.45;;;;;;;28.91;44.50;101845.28;5005680;28;20053;-71
2023/09/06 11:23:05;;;;;;;4.97;2.42;;;;;;;28.95;44.75;101839.41;5000720;28;20049;-71
2023/09/06 11:25:32;;;;;;;5.90;2.00;;;;;;;29.05;44.86;101831.25;5005373;28;20195;-72
2023/09/06 11:28:13;;;;;;;3.50;2.00;;;;;;;29.16;43.83;101842.94;5005921;28;20054;-72
2023/09/06 11:30:41;;;;;;;4.68;1.85;;;;;;;29.25;43.74;101845.66;5001530;28;20046;-72
2023/09/06 11:33:11;;;;;;;6.40;2.10;;;;;;;29.34;43.32;101843.97;5010894;28;20041;-72
2023/09/06 11:35:56;;;;;;;3.67;1.92;;;;;;;29.44;43.90;101839.38;5005770;28;20428;-71
2023/09/06 11:38:30;;;;;;;5.47;2.30;;;;;;;29.52;41.90;101838.63;5003627;28;20038;-71